Terminal Aerodrome Forecast
Issued by NWS Cleveland, OH

Home | Current Version | Previous Version | Graphics & Text | Print | Product List | Glossary On
Versions: 1 2 3 4 5 6 7 8 9 10 11 12 13 14 15 16 17 18 19 20 21
000
FTUS41 KCLE 201400 AAB
TAFTOL
TAF AMD
KTOL 201412Z 2014/2112 25004KT P6SM BKN008
      TEMPO 2014/2016 SCT008
     FM201600 26012KT P6SM SCT040
     FM211000 VRB03KT 4SM BR FEW015 SCT100=

USA.gov is the U.S. government's official web portal to all federal, state and local government web resources and services.